createdAt,value
2023-09-23T00:06:51.120Z,95.58
2023-09-23T00:36:51.116Z,95.92
2023-09-23T01:06:51.120Z,95.14
2023-09-23T01:36:51.137Z,95.94
2023-09-23T02:06:51.158Z,95.48
2023-09-23T02:36:51.159Z,95.53
2023-09-23T03:06:51.201Z,95.54
2023-09-23T03:36:51.155Z,96.42
2023-09-23T04:06:51.155Z,97.26
2023-09-23T04:36:51.170Z,96.17
2023-09-23T05:06:51.175Z,95.52
2023-09-23T05:36:51.185Z,94.83
2023-09-23T06:06:51.177Z,96.84
2023-09-23T06:36:51.174Z,96.45
2023-09-23T07:06:51.183Z,97.72
2023-09-23T07:36:51.192Z,96.61
2023-09-23T08:06:51.192Z,95.19
2023-09-23T09:06:51.242Z,93.95
2023-09-23T09:36:51.213Z,91.52
2023-09-23T10:06:51.204Z,89.74
2023-09-23T10:36:51.220Z,86.91
2023-09-23T11:06:51.210Z,84.31
2023-09-23T11:36:51.224Z,83.69
2023-09-23T12:06:51.233Z,82.02
2023-09-23T12:36:51.289Z,78.6
2023-09-23T13:06:51.239Z,76.48
2023-09-23T13:36:51.243Z,72.6
2023-09-23T14:06:51.251Z,67.86
2023-09-23T14:36:51.245Z,68.2
2023-09-23T15:06:51.242Z,68.79
2023-09-23T15:36:51.253Z,70.08
2023-09-23T16:06:51.253Z,70.18
2023-09-23T16:36:51.254Z,71.21
2023-09-23T17:06:51.264Z,71.97
2023-09-23T17:36:51.280Z,72.85
2023-09-23T18:06:51.290Z,73.19
2023-09-23T18:36:51.306Z,73.86
2023-09-23T19:06:51.314Z,74.73
2023-09-23T19:36:51.299Z,75.42
2023-09-23T20:06:51.293Z,76.38
2023-09-23T20:36:51.305Z,76.3
2023-09-23T21:06:51.313Z,77.1
2023-09-23T21:36:51.308Z,77.43
2023-09-23T22:06:51.321Z,77.96
2023-09-23T22:36:51.315Z,78.5
2023-09-23T23:06:51.374Z,78.86
2023-09-23T23:36:51.342Z,79.22
